createdAt,value
2022-11-15T00:00:00.041Z,15.00
2022-11-15T00:02:04.999Z,17.10
2022-11-15T00:04:07.941Z,14.37
2022-11-15T00:06:11.182Z,16.23
2022-11-15T00:08:15.735Z,17.90
2022-11-15T00:10:18.785Z,18.03
2022-11-15T00:12:21.530Z,17.00
2022-11-15T00:14:24.268Z,15.23
2022-11-15T00:16:27.163Z,16.00
2022-11-15T00:18:30.838Z,15.13
2022-11-15T00:20:35.213Z,16.40
2022-11-15T00:22:37.918Z,15.53
2022-11-15T00:24:42.009Z,15.87
2022-11-15T00:26:44.739Z,18.90
2022-11-15T00:28:47.450Z,15.67
2022-11-15T00:30:50.383Z,14.77
2022-11-15T00:32:53.613Z,16.33
2022-11-15T00:34:56.296Z,15.93
2022-11-15T00:36:59.032Z,15.83
2022-11-15T00:39:01.905Z,14.27
2022-11-15T00:41:09.954Z,15.07
2022-11-15T00:43:12.887Z,16.07
2022-11-15T00:45:15.671Z,15.60
2022-11-15T00:47:18.596Z,13.97
2022-11-15T00:49:21.325Z,14.87
2022-11-15T00:51:24.379Z,14.50
2022-11-15T00:53:27.110Z,14.93
2022-11-15T00:55:30.033Z,13.30
2022-11-15T00:57:34.310Z,13.87
2022-11-15T00:59:37.082Z,14.97
2022-11-15T01:01:40.216Z,13.57
2022-11-15T01:03:43.564Z,13.83
2022-11-15T01:05:46.450Z,12.73
2022-11-15T01:07:49.119Z,12.17
2022-11-15T01:09:51.978Z,12.07
2022-11-15T01:11:54.963Z,12.30
2022-11-15T01:13:59.227Z,12.83
2022-11-15T01:16:08.231Z,12.10
2022-11-15T01:18:11.315Z,12.90
2022-11-15T01:20:14.341Z,12.83
2022-11-15T01:22:17.046Z,12.70
2022-11-15T01:24:19.871Z,13.57
2022-11-15T01:26:23.661Z,11.83
2022-11-15T01:28:26.757Z,15.10
2022-11-15T01:30:30.851Z,14.30
2022-11-15T01:32:34.017Z,12.40
2022-11-15T01:34:36.962Z,11.73
2022-11-15T01:36:40.018Z,12.27
2022-11-15T01:38:43.021Z,12.50
2022-11-15T01:40:45.937Z,14.00
2022-11-15T01:42:48.683Z,11.67
2022-11-15T01:44:52.766Z,15.00
2022-11-15T01:46:57.041Z,12.93
2022-11-15T01:49:03.827Z,13.37
2022-11-15T01:51:10.026Z,11.87
2022-11-15T01:53:12.942Z,11.43
2022-11-15T01:55:20.564Z,12.60
2022-11-15T01:57:23.359Z,11.83
2022-11-15T01:59:26.168Z,14.03
2022-11-15T02:01:30.360Z,11.63
2022-11-15T02:03:40.496Z,14.63
2022-11-15T02:05:45.071Z,10.90
2022-11-15T02:07:48.777Z,10.77
2022-11-15T02:09:52.619Z,11.50
2022-11-15T02:11:57.947Z,10.60
2022-11-15T02:14:02.678Z,12.23
2022-11-15T02:16:14.814Z,13.07
2022-11-15T02:18:25.242Z,10.47
2022-11-15T02:20:44.292Z,11.07
2022-11-15T02:23:05.341Z,12.13
2022-11-15T02:25:38.694Z,11.50
2022-11-15T02:28:12.513Z,12.13
2022-11-15T02:30:31.478Z,10.43
2022-11-15T02:32:41.798Z,10.33
2022-11-15T02:34:57.099Z,12.30
2022-11-15T02:37:05.894Z,11.30
2022-11-15T02:39:16.409Z,12.13
2022-11-15T02:41:25.808Z,11.10
2022-11-15T02:43:50.557Z,10.83
2022-11-15T02:46:03.434Z,12.47
2022-11-15T02:48:06.930Z,10.87
2022-11-15T02:50:12.621Z,11.73
2022-11-15T02:52:18.134Z,13.10
2022-11-15T02:54:24.212Z,10.90
2022-11-15T02:56:26.996Z,11.17
2022-11-15T02:58:57.001Z,11.40
2022-11-15T03:01:06.309Z,9.90
2022-11-15T03:03:32.826Z,10.37
2022-11-15T03:05:43.355Z,9.77
2022-11-15T03:07:59.409Z,10.53
2022-11-15T03:10:10.391Z,12.37
2022-11-15T03:12:18.829Z,9.40
2022-11-15T03:14:25.459Z,11.53
2022-11-15T03:16:35.584Z,10.67
2022-11-15T03:18:43.342Z,9.23
2022-11-15T03:20:48.281Z,9.27
2022-11-15T03:22:52.299Z,8.93
2022-11-15T03:24:58.567Z,12.37
2022-11-15T03:27:03.309Z,9.93
2022-11-15T03:29:11.566Z,10.13
2022-11-15T03:31:34.647Z,9.93
2022-11-15T03:33:38.941Z,8.07
2022-11-15T03:35:46.520Z,8.00
2022-11-15T03:37:53.348Z,8.57
2022-11-15T03:39:56.133Z,10.13
2022-11-15T03:42:06.812Z,8.73
2022-11-15T03:44:17.695Z,8.17
2022-11-15T03:46:27.967Z,10.13
2022-11-15T03:48:36.077Z,9.20
2022-11-15T03:50:40.582Z,8.00
2022-11-15T03:52:44.137Z,7.70
2022-11-15T03:54:51.047Z,8.73
2022-11-15T03:56:53.754Z,8.80
2022-11-15T03:58:56.667Z,7.93
2022-11-15T04:01:00.507Z,8.47
2022-11-15T04:03:03.522Z,8.33
2022-11-15T04:05:06.617Z,7.43
2022-11-15T04:07:10.720Z,8.33
2022-11-15T04:09:13.785Z,8.20
2022-11-15T04:11:16.860Z,8.73
2022-11-15T04:13:19.741Z,7.23
2022-11-15T04:15:25.410Z,8.00
2022-11-15T04:17:28.385Z,7.10
2022-11-15T04:19:48.506Z,8.00
2022-11-15T04:22:09.026Z,8.50
2022-11-15T04:24:16.223Z,7.77
2022-11-15T04:26:21.214Z,7.77
2022-11-15T04:28:24.502Z,7.57
2022-11-15T04:30:26.287Z,7.50
2022-11-15T04:32:29.210Z,11.67
2022-11-15T04:34:32.015Z,6.93
2022-11-15T04:36:52.321Z,6.97
2022-11-15T04:38:55.211Z,7.23
2022-11-15T04:40:59.483Z,7.63
2022-11-15T04:43:04.183Z,7.73
2022-11-15T04:45:07.726Z,10.87
2022-11-15T04:47:10.438Z,8.03
2022-11-15T04:49:13.161Z,8.97
2022-11-15T04:51:15.877Z,8.03
2022-11-15T04:53:18.643Z,11.80
2022-11-15T04:55:21.852Z,10.40
2022-11-15T04:57:25.866Z,9.07
2022-11-15T04:59:28.564Z,8.43
2022-11-15T05:01:31.370Z,7.87
2022-11-15T05:03:51.870Z,8.40
2022-11-15T05:05:54.583Z,10.07
2022-11-15T05:07:57.738Z,8.60
2022-11-15T05:10:00.434Z,8.47
2022-11-15T05:12:03.130Z,9.67
2022-11-15T05:14:07.464Z,10.33
2022-11-15T05:16:10.511Z,9.20
2022-11-15T05:18:13.504Z,8.93
2022-11-15T05:20:16.522Z,9.63
2022-11-15T05:22:19.783Z,10.37
2022-11-15T05:24:22.543Z,10.07
2022-11-15T05:26:25.662Z,8.97
2022-11-15T05:28:28.577Z,9.73
2022-11-15T05:30:33.054Z,9.20
2022-11-15T05:32:35.954Z,12.57
2022-11-15T05:34:38.923Z,9.53
2022-11-15T05:36:45.550Z,10.57
2022-11-15T05:38:48.857Z,11.03
2022-11-15T05:40:51.736Z,10.80
2022-11-15T05:42:54.798Z,12.23
2022-11-15T05:45:00.098Z,11.10
2022-11-15T05:47:07.055Z,10.57
2022-11-15T05:49:13.302Z,11.97
2022-11-15T05:51:19.074Z,11.47
2022-11-15T05:53:25.057Z,9.97
2022-11-15T05:55:27.794Z,12.73
2022-11-15T05:57:30.570Z,13.60
2022-11-15T05:59:34.592Z,12.20
2022-11-15T06:01:37.561Z,16.70
2022-11-15T06:03:41.790Z,13.87
2022-11-15T06:05:44.499Z,13.00
2022-11-15T06:07:47.203Z,12.03
2022-11-15T06:09:50.104Z,13.53
2022-11-15T06:11:52.786Z,13.33
2022-11-15T06:13:55.588Z,13.57
2022-11-15T06:15:58.765Z,13.90
2022-11-15T06:18:01.676Z,12.87
2022-11-15T06:20:06.486Z,13.03
2022-11-15T06:22:10.305Z,13.93
2022-11-15T06:24:13.006Z,14.33
2022-11-15T06:26:15.702Z,13.63
2022-11-15T06:28:18.415Z,12.83
2022-11-15T06:30:21.635Z,13.00
2022-11-15T06:32:24.302Z,15.27
2022-11-15T06:34:26.982Z,15.60
2022-11-15T06:36:31.159Z,13.97
2022-11-15T06:38:34.212Z,15.77
2022-11-15T06:40:38.160Z,17.60
2022-11-15T06:42:40.854Z,15.33
2022-11-15T06:44:43.532Z,15.97
2022-11-15T06:46:46.448Z,14.90
2022-11-15T06:48:50.077Z,15.83
2022-11-15T06:50:53.835Z,14.53
2022-11-15T06:53:02.927Z,15.27
2022-11-15T06:55:06.462Z,16.10
2022-11-15T06:57:09.179Z,15.93
2022-11-15T06:59:11.956Z,13.90
2022-11-15T07:01:14.819Z,17.43
2022-11-15T07:03:17.530Z,14.00
2022-11-15T07:05:20.496Z,18.67
2022-11-15T07:07:23.335Z,15.50
2022-11-15T07:09:27.749Z,15.27
2022-11-15T07:11:30.470Z,13.10
2022-11-15T07:13:35.574Z,12.80
2022-11-15T07:15:38.642Z,13.77
2022-11-15T07:17:41.335Z,12.60
2022-11-15T07:19:44.037Z,12.30
2022-11-15T07:21:47.554Z,15.63
2022-11-15T07:23:50.243Z,13.47
2022-11-15T07:25:54.267Z,12.50
2022-11-15T07:27:57.504Z,13.33
2022-11-15T07:30:00.595Z,13.57
2022-11-15T07:32:03.291Z,11.70
2022-11-15T07:34:06.098Z,11.03
2022-11-15T07:36:10.163Z,11.77
2022-11-15T07:38:12.871Z,12.00
2022-11-15T07:40:15.630Z,12.50
2022-11-15T07:42:37.362Z,13.77
2022-11-15T07:44:40.279Z,10.63
2022-11-15T07:46:43.156Z,12.80
2022-11-15T07:48:46.120Z,10.03
2022-11-15T07:50:48.880Z,10.47
2022-11-15T07:52:56.499Z,9.60
2022-11-15T07:54:59.391Z,9.80
2022-11-15T07:57:06.961Z,9.77
2022-11-15T07:59:11.703Z,10.23
2022-11-15T08:01:14.637Z,9.63
2022-11-15T08:03:18.421Z,7.93
2022-11-15T08:05:21.142Z,7.90
2022-11-15T08:07:24.147Z,7.40
2022-11-15T08:09:26.952Z,7.27
2022-11-15T08:11:29.868Z,7.23
2022-11-15T08:13:33.117Z,7.97
2022-11-15T08:15:38.302Z,7.13
2022-11-15T08:17:41.055Z,5.67
2022-11-15T08:19:43.927Z,7.13
2022-11-15T08:21:46.590Z,7.20
2022-11-15T08:23:49.367Z,6.07
2022-11-15T08:25:52.110Z,7.10
2022-11-15T08:27:55.300Z,9.57
2022-11-15T08:29:59.607Z,5.77
2022-11-15T08:32:03.850Z,6.90
2022-11-15T08:34:08.003Z,5.60
2022-11-15T08:36:14.863Z,7.03
2022-11-15T08:38:17.646Z,7.87
2022-11-15T08:40:20.739Z,9.80
2022-11-15T08:42:23.683Z,5.20
2022-11-15T08:44:26.547Z,6.80
2022-11-15T08:46:29.746Z,6.50
2022-11-15T08:48:34.076Z,7.03
2022-11-15T08:50:36.975Z,8.45
2022-11-15T08:52:39.925Z,6.97
2022-11-15T08:54:42.983Z,6.00
2022-11-15T08:56:45.728Z,5.90
2022-11-15T08:58:48.744Z,8.27
2022-11-15T09:00:51.551Z,7.23
2022-11-15T09:02:54.417Z,9.38
2022-11-15T09:04:58.572Z,6.18
2022-11-15T09:07:01.370Z,9.55
2022-11-15T09:09:04.830Z,8.27
2022-11-15T09:11:08.390Z,8.13
2022-11-15T09:13:11.194Z,8.38
2022-11-15T09:15:13.955Z,6.88
2022-11-15T09:17:20.396Z,5.47
2022-11-15T09:19:27.519Z,6.43
2022-11-15T09:21:32.684Z,5.57
2022-11-15T09:23:35.558Z,8.95
2022-11-15T09:25:38.379Z,7.72
2022-11-15T09:27:41.116Z,8.25
2022-11-15T09:29:43.871Z,9.23
2022-11-15T09:31:46.674Z,6.95
2022-11-15T09:33:49.452Z,7.03
2022-11-15T09:35:52.184Z,8.32
2022-11-15T09:37:56.703Z,6.50
2022-11-15T09:39:59.435Z,6.88
2022-11-15T09:42:20.704Z,8.20
2022-11-15T09:44:41.936Z,6.75
2022-11-15T09:46:54.748Z,8.43
2022-11-15T09:48:58.421Z,6.63
2022-11-15T09:51:01.387Z,6.68
2022-11-15T09:53:05.680Z,8.38
2022-11-15T09:55:12.118Z,6.85
2022-11-15T09:57:19.391Z,9.73
2022-11-15T09:59:37.416Z,6.25
2022-11-15T10:01:47.069Z,8.07
2022-11-15T10:03:49.802Z,7.70
2022-11-15T10:05:56.476Z,7.95
2022-11-15T10:08:08.463Z,9.23
2022-11-15T10:10:16.992Z,7.00
2022-11-15T10:12:20.165Z,10.25
2022-11-15T10:14:25.134Z,6.50
2022-11-15T10:17:10.354Z,6.97
2022-11-15T10:19:22.456Z,7.60
2022-11-15T10:21:29.732Z,6.57
2022-11-15T10:23:34.145Z,6.90
2022-11-15T10:25:37.899Z,8.27
2022-11-15T10:27:41.939Z,7.78
2022-11-15T10:29:46.162Z,9.63
2022-11-15T10:31:49.560Z,12.63
2022-11-15T10:33:53.042Z,7.35
2022-11-15T10:36:17.354Z,8.93
2022-11-15T10:38:20.372Z,9.32
2022-11-15T10:40:25.689Z,7.93
2022-11-15T10:42:30.750Z,10.27
2022-11-15T10:44:33.912Z,9.50
2022-11-15T10:46:47.414Z,7.45
2022-11-15T10:48:50.598Z,8.73
2022-11-15T10:50:54.836Z,12.98
2022-11-15T10:52:57.754Z,8.55
2022-11-15T10:55:05.019Z,8.07
2022-11-15T10:57:14.123Z,9.60
2022-11-15T10:59:24.719Z,7.07
2022-11-15T11:01:30.415Z,10.23
2022-11-15T11:03:38.502Z,12.30
2022-11-15T11:05:43.162Z,8.35
2022-11-15T11:07:58.266Z,7.97
2022-11-15T11:10:13.359Z,9.43
2022-11-15T11:12:32.320Z,8.90
2022-11-15T11:14:37.808Z,10.32
2022-11-15T11:16:46.197Z,7.13
2022-11-15T11:18:58.554Z,8.35
2022-11-15T11:21:06.234Z,11.00
2022-11-15T11:23:24.402Z,9.30
2022-11-15T11:25:34.812Z,8.05
2022-11-15T11:27:48.392Z,8.00
2022-11-15T11:30:10.473Z,8.18
2022-11-15T11:32:33.331Z,10.10
2022-11-15T11:34:49.729Z,7.70
2022-11-15T11:37:03.466Z,9.23
2022-11-15T11:39:20.082Z,11.05
2022-11-15T11:41:39.287Z,10.88
2022-11-15T11:43:58.178Z,10.85
2022-11-15T11:46:16.432Z,7.90
2022-11-15T11:48:33.149Z,9.57
2022-11-15T11:50:39.840Z,8.20
2022-11-15T11:52:50.394Z,10.38
2022-11-15T11:55:01.070Z,8.20
2022-11-15T11:57:09.347Z,7.60
2022-11-15T11:59:27.350Z,7.38
2022-11-15T12:01:36.493Z,7.63
2022-11-15T12:03:45.802Z,8.77
2022-11-15T12:05:53.185Z,8.05
2022-11-15T12:08:04.129Z,6.85
2022-11-15T12:10:18.275Z,7.45
2022-11-15T12:12:25.829Z,7.30
2022-11-15T12:14:36.058Z,9.52
2022-11-15T12:16:44.543Z,6.85
2022-11-15T12:18:51.787Z,6.88
2022-11-15T12:20:58.440Z,8.77
2022-11-15T12:23:08.296Z,7.18
2022-11-15T12:25:19.093Z,6.68
2022-11-15T12:27:28.650Z,7.20
2022-11-15T12:29:39.147Z,7.22
2022-11-15T12:31:45.536Z,6.38
2022-11-15T12:33:50.218Z,7.78
2022-11-15T12:36:02.049Z,7.22
2022-11-15T12:38:04.981Z,6.22
2022-11-15T12:40:37.210Z,9.13
2022-11-15T12:42:44.035Z,9.48
2022-11-15T12:45:00.959Z,7.72
2022-11-15T12:47:07.065Z,7.32
2022-11-15T12:49:13.149Z,6.15
2022-11-15T12:51:15.896Z,7.63
2022-11-15T12:53:39.591Z,6.88
2022-11-15T12:55:42.576Z,5.88
2022-11-15T12:57:45.361Z,8.80
2022-11-15T12:59:51.587Z,7.03
2022-11-15T13:02:02.762Z,5.95
2022-11-15T13:04:17.271Z,7.15
2022-11-15T13:06:40.648Z,7.72
2022-11-15T13:08:49.955Z,5.70
2022-11-15T13:10:52.772Z,10.05
2022-11-15T13:12:58.416Z,6.32
2022-11-15T13:15:01.987Z,7.13
2022-11-15T13:17:18.317Z,5.60
2022-11-15T13:19:25.012Z,8.75
2022-11-15T13:21:45.765Z,9.07
2022-11-15T13:23:54.766Z,5.57
2022-11-15T13:26:14.430Z,7.43
2022-11-15T13:28:26.524Z,6.40
2022-11-15T13:30:32.008Z,5.32
2022-11-15T13:32:36.282Z,7.65
2022-11-15T13:34:54.991Z,6.57
2022-11-15T13:36:58.127Z,8.10
2022-11-15T13:39:03.505Z,7.63
2022-11-15T13:41:19.446Z,5.93
2022-11-15T13:43:30.611Z,5.82
2022-11-15T13:45:33.532Z,9.27
2022-11-15T13:47:37.713Z,7.15
2022-11-15T13:49:40.673Z,7.00
2022-11-15T13:51:47.142Z,10.77
2022-11-15T13:53:55.880Z,8.57
2022-11-15T13:56:00.053Z,9.52
2022-11-15T13:58:06.981Z,5.88
2022-11-15T14:00:28.647Z,7.13
2022-11-15T14:02:33.863Z,8.52
2022-11-15T14:04:46.856Z,7.00
2022-11-15T14:06:53.356Z,5.30
2022-11-15T14:09:23.217Z,5.65
2022-11-15T14:11:26.436Z,5.03
2022-11-15T14:13:31.532Z,5.60
2022-11-15T14:15:35.993Z,6.22
2022-11-15T14:17:44.483Z,4.97
2022-11-15T14:19:53.192Z,7.53
2022-11-15T14:22:21.295Z,6.63
2022-11-15T14:24:25.149Z,7.40
2022-11-15T14:26:30.865Z,5.03
2022-11-15T14:28:38.158Z,6.30
2022-11-15T14:30:41.852Z,5.30
2022-11-15T14:32:47.502Z,4.88
2022-11-15T14:34:56.258Z,7.05
2022-11-15T14:36:58.979Z,5.53
2022-11-15T14:39:02.154Z,7.55
2022-11-15T14:41:05.225Z,5.60
2022-11-15T14:43:11.231Z,5.93
2022-11-15T14:45:16.276Z,5.40
2022-11-15T14:47:19.419Z,5.60
2022-11-15T14:49:22.189Z,6.32
2022-11-15T14:51:28.038Z,6.72
2022-11-15T14:53:30.988Z,9.57
2022-11-15T14:55:36.834Z,6.28
2022-11-15T14:57:39.569Z,7.75
2022-11-15T14:59:42.377Z,5.90
2022-11-15T15:01:45.158Z,5.53
2022-11-15T15:03:48.336Z,5.85
2022-11-15T15:05:51.057Z,6.20
2022-11-15T15:07:55.214Z,5.70
2022-11-15T15:10:24.617Z,9.52
2022-11-15T15:12:23.031Z,9.25
2022-11-15T15:14:25.961Z,5.82
2022-11-15T15:16:30.183Z,5.80
2022-11-15T15:18:33.231Z,7.40
2022-11-15T15:20:37.129Z,5.28
2022-11-15T15:22:40.863Z,5.30
2022-11-15T15:24:45.826Z,6.35
2022-11-15T15:26:49.199Z,5.28
2022-11-15T15:28:52.550Z,7.88
2022-11-15T15:30:55.252Z,6.47
2022-11-15T15:32:58.424Z,5.28
2022-11-15T15:35:01.460Z,6.90
2022-11-15T15:37:21.011Z,6.18
2022-11-15T15:39:24.395Z,7.32
2022-11-15T15:41:28.651Z,8.00
2022-11-15T15:43:31.466Z,5.75
2022-11-15T15:45:34.934Z,6.45
2022-11-15T15:47:38.384Z,9.70
2022-11-15T15:49:41.256Z,7.75
2022-11-15T15:51:44.597Z,7.50
2022-11-15T15:53:47.478Z,8.52
2022-11-15T15:55:50.219Z,7.78
2022-11-15T15:57:54.855Z,8.50
2022-11-15T15:59:57.643Z,7.43
2022-11-15T16:02:00.717Z,7.90
2022-11-15T16:04:03.466Z,7.67
2022-11-15T16:06:06.786Z,8.30
2022-11-15T16:08:19.234Z,8.30
2022-11-15T16:10:25.908Z,11.95
2022-11-15T16:12:29.214Z,9.50
2022-11-15T16:14:33.319Z,8.27
2022-11-15T16:16:37.030Z,9.67
2022-11-15T16:18:39.912Z,9.95
2022-11-15T16:20:45.199Z,10.32
2022-11-15T16:22:48.184Z,7.38
2022-11-15T16:24:51.024Z,12.15
2022-11-15T16:26:54.318Z,7.95
2022-11-15T16:28:57.345Z,6.60
2022-11-15T16:31:06.671Z,7.50
2022-11-15T16:33:09.485Z,9.52
2022-11-15T16:35:13.591Z,13.93
2022-11-15T16:37:24.307Z,7.45
2022-11-15T16:39:28.703Z,6.53
2022-11-15T16:41:31.690Z,10.52
2022-11-15T16:43:34.609Z,12.38
2022-11-15T16:45:37.488Z,13.88
2022-11-15T16:47:41.562Z,10.35
2022-11-15T16:49:44.963Z,7.80
2022-11-15T16:51:48.340Z,6.80
2022-11-15T16:53:51.575Z,7.25
2022-11-15T16:55:54.619Z,10.52
2022-11-15T16:57:58.924Z,9.02
2022-11-15T17:00:01.607Z,8.60
2022-11-15T17:02:04.573Z,12.10
2022-11-15T17:04:13.296Z,9.70
2022-11-15T17:06:18.228Z,6.97
2022-11-15T17:08:22.433Z,8.55
2022-11-15T17:10:27.047Z,7.60
2022-11-15T17:12:30.842Z,8.37
2022-11-15T17:14:33.651Z,7.35
2022-11-15T17:16:38.038Z,9.05
2022-11-15T17:18:42.004Z,9.20
2022-11-15T17:20:46.586Z,7.97
2022-11-15T17:22:49.744Z,8.68
2022-11-15T17:24:52.571Z,8.67
2022-11-15T17:26:55.345Z,9.27
2022-11-15T17:28:59.124Z,8.40
2022-11-15T17:31:02.463Z,9.93
2022-11-15T17:33:05.342Z,8.90
2022-11-15T17:35:14.824Z,9.87
2022-11-15T17:37:19.804Z,9.57
2022-11-15T17:39:23.683Z,10.97
2022-11-15T17:41:26.477Z,13.27
2022-11-15T17:43:29.398Z,10.43
2022-11-15T17:45:32.183Z,12.37
2022-11-15T17:47:34.917Z,9.73
2022-11-15T17:49:40.664Z,11.67
2022-11-15T17:51:48.735Z,9.93
2022-11-15T17:53:54.259Z,11.30
2022-11-15T17:56:01.845Z,10.30
2022-11-15T17:58:04.826Z,10.47
2022-11-15T18:00:09.071Z,10.20
2022-11-15T18:02:11.772Z,12.13
2022-11-15T18:04:15.229Z,13.23
2022-11-15T18:06:19.281Z,11.10
2022-11-15T18:08:23.851Z,9.07
2022-11-15T18:10:28.110Z,8.13
2022-11-15T18:12:30.855Z,8.60
2022-11-15T18:14:33.857Z,11.13
2022-11-15T18:16:37.962Z,8.23
2022-11-15T18:18:41.382Z,10.60
2022-11-15T18:20:44.211Z,8.90
2022-11-15T18:22:47.047Z,9.60
2022-11-15T18:24:50.011Z,8.43
2022-11-15T18:26:54.515Z,8.47
2022-11-15T18:28:59.056Z,8.27
2022-11-15T18:31:03.228Z,10.07
2022-11-15T18:33:05.971Z,11.33
2022-11-15T18:35:09.106Z,9.82
2022-11-15T18:37:11.960Z,9.10
2022-11-15T18:39:17.055Z,10.73
2022-11-15T18:41:24.535Z,10.07
2022-11-15T18:43:28.575Z,10.20
2022-11-15T18:45:32.033Z,11.33
2022-11-15T18:47:34.854Z,9.00
2022-11-15T18:49:37.645Z,10.47
2022-11-15T18:51:41.774Z,11.83
2022-11-15T18:53:45.299Z,9.90
2022-11-15T18:55:48.037Z,11.87
2022-11-15T18:57:50.781Z,11.73
2022-11-15T18:59:54.954Z,11.67
2022-11-15T19:01:57.804Z,11.00
2022-11-15T19:04:04.452Z,11.40
2022-11-15T19:06:09.518Z,10.90
2022-11-15T19:08:12.435Z,8.87
2022-11-15T19:10:15.469Z,9.27
2022-11-15T19:12:18.451Z,8.40
2022-11-15T19:14:23.779Z,9.57
2022-11-15T19:16:29.032Z,11.00
2022-11-15T19:18:32.767Z,8.20
2022-11-15T19:20:36.698Z,8.20
2022-11-15T19:22:39.675Z,10.00
2022-11-15T19:24:42.608Z,7.77
2022-11-15T19:26:45.630Z,7.63
2022-11-15T19:28:53.071Z,7.53
2022-11-15T19:31:03.657Z,8.90
2022-11-15T19:33:07.750Z,8.70
2022-11-15T19:35:10.935Z,7.47
2022-11-15T19:37:13.866Z,6.90
2022-11-15T19:39:18.296Z,8.53
2022-11-15T19:41:22.977Z,10.03
2022-11-15T19:43:25.770Z,8.30
2022-11-15T19:45:28.506Z,8.43
2022-11-15T19:47:31.250Z,8.93
2022-11-15T19:49:35.631Z,8.60
2022-11-15T19:51:38.873Z,8.40
2022-11-15T19:53:42.570Z,8.13
2022-11-15T19:55:55.202Z,11.67
2022-11-15T19:57:58.056Z,10.13
2022-11-15T20:00:05.751Z,12.77
2022-11-15T20:02:11.227Z,14.77
2022-11-15T20:04:13.983Z,11.97
2022-11-15T20:06:19.804Z,13.70
2022-11-15T20:08:22.566Z,11.50
2022-11-15T20:10:25.486Z,14.73
2022-11-15T20:12:28.378Z,10.33
2022-11-15T20:14:31.586Z,10.83
2022-11-15T20:16:34.429Z,9.83
2022-11-15T20:18:37.514Z,10.57
2022-11-15T20:20:40.546Z,11.00
2022-11-15T20:22:44.862Z,10.67
2022-11-15T20:24:47.956Z,8.80
2022-11-15T20:26:50.826Z,8.77
2022-11-15T20:28:53.600Z,9.67
2022-11-15T20:30:58.621Z,11.07
2022-11-15T20:33:01.415Z,9.90
2022-11-15T20:35:04.274Z,9.67
2022-11-15T20:37:06.951Z,11.13
2022-11-15T20:39:11.053Z,9.83
2022-11-15T20:41:13.942Z,8.70
2022-11-15T20:43:18.758Z,8.67
2022-11-15T20:45:22.000Z,11.87
2022-11-15T20:47:29.160Z,7.87
2022-11-15T20:49:33.404Z,7.20
2022-11-15T20:51:36.830Z,7.37
2022-11-15T20:53:39.724Z,8.60
2022-11-15T20:55:47.822Z,6.93
2022-11-15T20:57:51.269Z,6.93
2022-11-15T20:59:54.588Z,7.67
2022-11-15T21:01:59.046Z,7.30
2022-11-15T21:04:02.199Z,7.00
2022-11-15T21:06:05.335Z,8.73
2022-11-15T21:08:09.072Z,10.43
2022-11-15T21:10:29.959Z,7.27
2022-11-15T21:12:33.419Z,7.13
2022-11-15T21:14:36.321Z,8.30
2022-11-15T21:16:39.602Z,7.63
2022-11-15T21:18:42.310Z,7.63
2022-11-15T21:20:45.217Z,9.47
2022-11-15T21:22:48.500Z,8.37
2022-11-15T21:24:51.314Z,6.60
2022-11-15T21:26:55.000Z,7.33
2022-11-15T21:28:59.212Z,8.37
2022-11-15T21:31:02.111Z,10.10
2022-11-15T21:33:05.052Z,8.53
2022-11-15T21:35:08.247Z,7.37
2022-11-15T21:37:11.341Z,7.00
2022-11-15T21:39:14.103Z,8.73
2022-11-15T21:41:16.998Z,10.87
2022-11-15T21:43:20.644Z,8.73
2022-11-15T21:45:24.673Z,7.30
2022-11-15T21:47:27.418Z,7.13
2022-11-15T21:49:30.137Z,7.50
2022-11-15T21:51:33.216Z,7.17
2022-11-15T21:53:35.981Z,7.90
2022-11-15T21:55:40.459Z,8.57
2022-11-15T21:57:43.166Z,6.90
2022-11-15T22:00:00.069Z,9.27
2022-11-15T22:02:16.172Z,9.43
2022-11-15T22:04:18.980Z,7.60
2022-11-15T22:06:21.693Z,9.43
2022-11-15T22:08:24.549Z,8.60
2022-11-15T22:10:27.597Z,9.53
2022-11-15T22:12:30.439Z,8.73
2022-11-15T22:14:33.182Z,9.63
2022-11-15T22:16:37.486Z,11.07
2022-11-15T22:18:41.793Z,10.07
2022-11-15T22:20:54.184Z,8.50
2022-11-15T22:22:58.256Z,9.60
2022-11-15T22:25:01.177Z,10.83
2022-11-15T22:27:04.256Z,7.97
2022-11-15T22:29:07.099Z,8.33
2022-11-15T22:31:11.527Z,8.93
2022-11-15T22:33:14.692Z,12.17
2022-11-15T22:35:19.596Z,9.77
2022-11-15T22:37:22.814Z,10.60
2022-11-15T22:39:25.728Z,9.33
2022-11-15T22:41:28.636Z,9.90
2022-11-15T22:43:31.663Z,9.03
2022-11-15T22:45:35.186Z,10.30
2022-11-15T22:47:38.032Z,12.23
2022-11-15T22:49:42.210Z,9.77
2022-11-15T22:51:46.505Z,10.10
2022-11-15T22:53:49.407Z,9.27
2022-11-15T22:55:53.231Z,10.97
2022-11-15T22:57:56.083Z,12.40
2022-11-15T22:59:58.930Z,9.80
2022-11-15T23:02:01.807Z,10.67
2022-11-15T23:04:05.243Z,10.37
2022-11-15T23:06:10.081Z,10.53
2022-11-15T23:08:14.420Z,10.60
2022-11-15T23:10:35.247Z,11.47
2022-11-15T23:12:55.807Z,10.93
2022-11-15T23:14:58.826Z,10.53
2022-11-15T23:17:01.934Z,9.77
2022-11-15T23:19:07.538Z,10.17
2022-11-15T23:21:11.389Z,9.63
2022-11-15T23:23:14.842Z,10.37
2022-11-15T23:25:17.686Z,10.00
2022-11-15T23:27:20.734Z,11.43
2022-11-15T23:29:25.173Z,12.17
2022-11-15T23:32:02.043Z,15.40
2022-11-15T23:34:06.726Z,14.23
2022-11-15T23:36:09.838Z,13.07
2022-11-15T23:38:13.006Z,15.63
2022-11-15T23:40:17.711Z,14.67
2022-11-15T23:42:20.689Z,14.93
2022-11-15T23:44:24.130Z,15.73
2022-11-15T23:46:27.282Z,21.63
2022-11-15T23:48:30.389Z,19.73
2022-11-15T23:50:34.447Z,19.67
2022-11-15T23:52:37.492Z,17.40
2022-11-15T23:54:40.604Z,21.93
2022-11-15T23:56:45.078Z,21.80
2022-11-15T23:58:48.938Z,18.00
